»·PEaware :: TPX860 KLAS-KSNA

TPX860 :: KLAS-KSNA

FLIGHT INFORMATION

Flight Status: Arrived
Operator: ATP Experience
More flights by this operator :: More flights under this callsign
Pilot: Ben F. (2808)
Aircraft: BOEING 737-300
(B733)
More flights by this aircraft type
Origin: KLAS McCarran Intl
United States
Destination: KSNA John Wayne-Orange Co
United States
More flights between these airports :: More routes between these airports
Route: BOACH8 WHIGG FEYLA DSNEE3
File this flight plan on PilotEdge
Remarks:
Altitude:
(Current/Filed)
28,000ft
Speed:
(Current/Filed)
450kts
Departed: 13-May-18 08:52 AM
Arrived: 13-May-18 09:36 AM
Distance/Time
Traveled:
197nm/0:44
Distance/Time
To Go:
Arrived

Flight Plot

Page will automatically refresh every two minutes.

Flight plan parsing failed; only flown route is shown


Map Options




Map Legend


Flown Route
Filed Route
Departure Airport
Arrival Airport
Navaid (VOR, NDB)
Fix

Horizontal Profiles

Position Reports

Time Latitude Longitude Heading Altitude Ground
Speed
13-May-18 08:29 36.080448 -115.138868 345 2148ft 0kts
13-May-18 08:30 36.080448 -115.138868 345 2148ft 0kts
13-May-18 08:31 36.080448 -115.138868 345 2148ft 0kts
13-May-18 08:32 36.080448 -115.138868 345 2148ft 0kts
13-May-18 08:33 36.080448 -115.138868 345 2148ft 0kts
13-May-18 08:34 36.080448 -115.138868 345 2148ft 0kts
13-May-18 08:35 36.080448 -115.138868 345 2148ft 0kts
13-May-18 08:36 36.080448 -115.138868 345 2148ft 0kts
13-May-18 08:37 36.080448 -115.138868 345 2148ft 0kts
13-May-18 08:38 36.080448 -115.138868 345 2148ft 0kts
13-May-18 08:39 36.080448 -115.138868 345 2148ft 0kts
13-May-18 08:40 36.080448 -115.138868 345 2148ft 0kts
13-May-18 08:41 36.080448 -115.138868 345 2148ft 0kts
13-May-18 08:42 36.080448 -115.138868 345 2148ft 0kts
13-May-18 08:43 36.080448 -115.138868 345 2148ft 0kts
13-May-18 08:44 36.080121 -115.138735 334 2148ft 2kts
13-May-18 08:45 36.079694 -115.138358 313 2148ft 1kts
13-May-18 08:46 36.079677 -115.138337 312 2148ft 0kts
13-May-18 08:47 36.079261 -115.139022 224 2148ft 8kts
13-May-18 08:48 36.078239 -115.138193 89 2148ft 14kts
13-May-18 08:49 36.078244 -115.131355 89 2148ft 22kts
13-May-18 08:50 36.078255 -115.123117 96 2148ft 24kts
13-May-18 08:51 36.077047 -115.121330 173 2148ft 9kts
13-May-18 08:52 36.076400 -115.138332 270 2148ft 143kts
13-May-18 08:53 36.076994 -115.199747 271 3222ft 217kts
13-May-18 08:54 36.045483 -115.266370 202 5344ft 266kts
13-May-18 08:55 35.975453 -115.299543 197 7014ft 273kts
13-May-18 08:56 35.899952 -115.310097 185 9254ft 280kts
13-May-18 08:57 35.819496 -115.310867 175 11100ft 322kts
13-May-18 08:58 35.725851 -115.300106 175 13419ft 347kts
13-May-18 08:59 35.640968 -115.344404 226 16017ft 358kts
13-May-18 09:00 35.573554 -115.435611 226 18441ft 366kts
13-May-18 09:01 35.507455 -115.524413 226 20610ft 373kts
13-May-18 09:02 35.437255 -115.619030 227 22648ft 380kts
13-May-18 09:03 35.373585 -115.704968 226 24310ft 387kts
13-May-18 09:04 35.300827 -115.802765 227 26067ft 393kts
13-May-18 09:05 35.226757 -115.901860 226 27660ft 400kts
13-May-18 09:06 35.150053 -115.998516 226 28018ft 391kts
13-May-18 09:07 35.074542 -116.093680 226 28010ft 391kts
13-May-18 09:08 34.999093 -116.188520 226 28023ft 388kts
13-May-18 09:09 34.924897 -116.281532 228 28031ft 381kts
13-May-18 09:10 34.857218 -116.366365 229 28011ft 379kts
13-May-18 09:11 34.784567 -116.458788 229 27951ft 379kts
13-May-18 09:12 34.713231 -116.549487 229 25794ft 378kts
13-May-18 09:13 34.636385 -116.630549 222 23793ft 363kts
13-May-18 09:14 34.561982 -116.703392 222 21909ft 358kts
13-May-18 09:15 34.486235 -116.780400 226 19985ft 354kts
13-May-18 09:16 34.428202 -116.848034 226 18416ft 350kts
13-May-18 09:17 34.358716 -116.928664 226 16436ft 340kts
13-May-18 09:18 34.290778 -117.006924 226 14673ft 338kts
13-May-18 09:19 34.202966 -117.080024 214 13356ft 341kts
13-May-18 09:20 34.123683 -117.128223 208 12632ft 311kts
13-May-18 09:21 34.042361 -117.171792 207 12201ft 331kts
13-May-18 09:22 33.979798 -117.219262 232 11194ft 325kts
13-May-18 09:23 33.922639 -117.299883 232 8887ft 297kts
13-May-18 09:24 33.878561 -117.362079 232 8439ft 255kts
13-May-18 09:25 33.835689 -117.422486 232 7947ft 237kts
13-May-18 09:26 33.804182 -117.491064 251 7602ft 231kts
13-May-18 09:27 33.805947 -117.562003 300 7594ft 221kts
13-May-18 09:28 33.839930 -117.622972 303 6538ft 216kts
13-May-18 09:29 33.868743 -117.673237 302 5420ft 206kts
13-May-18 09:30 33.871734 -117.730535 231 4035ft 195kts
13-May-18 09:31 33.832145 -117.770837 206 2950ft 176kts
13-May-18 09:32 33.789366 -117.796843 206 2501ft 172kts
13-May-18 09:33 33.749552 -117.822023 206 1590ft 159kts
13-May-18 09:34 33.714048 -117.844616 207 805ft 146kts
13-May-18 09:35 33.679240 -117.866598 205 65ft 133kts
13-May-18 09:36 33.669904 -117.870098 39 63ft 18kts
13-May-18 09:37 33.674414 -117.866242 26 63ft 22kts
13-May-18 09:38 33.674894 -117.865138 118 63ft 0kts
13-May-18 09:39 33.674894 -117.865138 118 63ft 0kts
13-May-18 09:40 33.674894 -117.865138 118 63ft 0kts
13-May-18 09:41 33.674894 -117.865138 118 63ft 0kts
13-May-18 09:42 33.674894 -117.865138 118 63ft 0kts

Navigation Log

Ident Type
Flight plan parsing failed, navigation log unavailable